sensor_id;sensor_type;location;lat;lon;timestamp;pressure;altitude;pressure_sealevel;temperature;humidity
37848;BME280;23688;33.130;-117.188;2024-03-06T00:02:13;99561.91;;;15.70;93.46
37848;BME280;23688;33.130;-117.188;2024-03-06T00:04:39;99549.94;;;15.82;92.29
37848;BME280;23688;33.130;-117.188;2024-03-06T00:07:05;99554.78;;;16.05;93.43
37848;BME280;23688;33.130;-117.188;2024-03-06T00:09:32;99554.97;;;15.72;91.56
37848;BME280;23688;33.130;-117.188;2024-03-06T00:11:58;99553.31;;;15.37;91.08
37848;BME280;23688;33.130;-117.188;2024-03-06T00:14:25;99556.78;;;15.38;92.31
37848;BME280;23688;33.130;-117.188;2024-03-06T00:16:52;99547.56;;;15.14;95.07
37848;BME280;23688;33.130;-117.188;2024-03-06T00:19:18;99549.63;;;15.29;96.55
37848;BME280;23688;33.130;-117.188;2024-03-06T00:21:45;99538.44;;;14.98;95.66
37848;BME280;23688;33.130;-117.188;2024-03-06T00:24:12;99551.63;;;15.03;97.43
37848;BME280;23688;33.130;-117.188;2024-03-06T00:26:45;99543.53;;;14.92;97.55
37848;BME280;23688;33.130;-117.188;2024-03-06T00:29:13;99530.69;;;14.67;96.97
37848;BME280;23688;33.130;-117.188;2024-03-06T00:31:44;99553.19;;;14.62;98.39
37848;BME280;23688;33.130;-117.188;2024-03-06T00:34:13;99552.31;;;14.29;100.00
37848;BME280;23688;33.130;-117.188;2024-03-06T00:36:40;99536.84;;;14.37;100.00
37848;BME280;23688;33.130;-117.188;2024-03-06T00:39:06;99527.53;;;14.47;100.00
37848;BME280;23688;33.130;-117.188;2024-03-06T00:41:34;99545.00;;;14.49;99.68
37848;BME280;23688;33.130;-117.188;2024-03-06T00:44:01;99545.69;;;14.42;100.00
37848;BME280;23688;33.130;-117.188;2024-03-06T00:46:29;99552.44;;;14.34;100.00
37848;BME280;23688;33.130;-117.188;2024-03-06T00:48:55;99552.22;;;14.26;100.00
37848;BME280;23688;33.130;-117.188;2024-03-06T00:51:22;99549.66;;;14.28;99.73
37848;BME280;23688;33.130;-117.188;2024-03-06T00:53:49;99546.44;;;14.38;100.00
37848;BME280;23688;33.130;-117.188;2024-03-06T00:56:15;99548.38;;;14.45;99.75
37848;BME280;23688;33.130;-117.188;2024-03-06T00:58:41;99555.72;;;14.27;99.39
37848;BME280;23688;33.130;-117.188;2024-03-06T01:01:07;99551.78;;;14.09;100.00
37848;BME280;23688;33.130;-117.188;2024-03-06T01:03:34;99550.78;;;14.06;100.00
37848;BME280;23688;33.130;-117.188;2024-03-06T01:06:00;99536.00;;;14.06;100.00
37848;BME280;23688;33.130;-117.188;2024-03-06T01:08:28;99543.16;;;14.13;100.00
37848;BME280;23688;33.130;-117.188;2024-03-06T01:10:56;99537.47;;;13.97;100.00
37848;BME280;23688;33.130;-117.188;2024-03-06T01:13:23;99542.91;;;14.04;100.00
37848;BME280;23688;33.130;-117.188;2024-03-06T01:15:50;99539.78;;;13.86;100.00
37848;BME280;23688;33.130;-117.188;2024-03-06T01:18:16;99533.78;;;13.60;100.00
37848;BME280;23688;33.130;-117.188;2024-03-06T01:20:42;99547.50;;;13.53;100.00
37848;BME280;23688;33.130;-117.188;2024-03-06T01:23:09;99549.88;;;13.45;100.00
37848;BME280;23688;33.130;-117.188;2024-03-06T01:25:35;99549.22;;;13.52;100.00
37848;BME280;23688;33.130;-117.188;2024-03-06T01:28:02;99560.25;;;13.72;100.00
37848;BME280;23688;33.130;-117.188;2024-03-06T01:30:28;99548.44;;;13.55;100.00
37848;BME280;23688;33.130;-117.188;2024-03-06T01:32:55;99550.44;;;13.35;100.00
37848;BME280;23688;33.130;-117.188;2024-03-06T01:35:21;99553.97;;;13.37;100.00
37848;BME280;23688;33.130;-117.188;2024-03-06T01:37:49;99539.91;;;13.32;100.00
37848;BME280;23688;33.130;-117.188;2024-03-06T01:40:15;99545.94;;;13.31;100.00
37848;BME280;23688;33.130;-117.188;2024-03-06T01:42:41;99552.69;;;13.51;100.00
37848;BME280;23688;33.130;-117.188;2024-03-06T01:45:08;99544.44;;;13.37;100.00
37848;BME280;23688;33.130;-117.188;2024-03-06T01:47:34;99543.44;;;13.34;100.00
37848;BME280;23688;33.130;-117.188;2024-03-06T01:50:01;99544.22;;;13.31;100.00
37848;BME280;23688;33.130;-117.188;2024-03-06T01:52:28;99557.38;;;13.34;100.00
37848;BME280;23688;33.130;-117.188;2024-03-06T01:54:54;99569.94;;;13.47;100.00
37848;BME280;23688;33.130;-117.188;2024-03-06T01:57:22;99545.63;;;13.21;100.00
37848;BME280;23688;33.130;-117.188;2024-03-06T01:59:48;99558.56;;;13.18;100.00
37848;BME280;23688;33.130;-117.188;2024-03-06T02:02:15;99546.16;;;13.37;100.00
37848;BME280;23688;33.130;-117.188;2024-03-06T02:04:41;99539.00;;;13.60;100.00
37848;BME280;23688;33.130;-117.188;2024-03-06T02:07:11;99540.81;;;13.62;100.00
37848;BME280;23688;33.130;-117.188;2024-03-06T02:09:41;99546.03;;;13.61;100.00
37848;BME280;23688;33.130;-117.188;2024-03-06T02:12:08;99541.53;;;13.57;100.00
37848;BME280;23688;33.130;-117.188;2024-03-06T02:14:36;99550.16;;;13.54;100.00
37848;BME280;23688;33.130;-117.188;2024-03-06T02:17:02;99545.69;;;13.50;100.00
37848;BME280;23688;33.130;-117.188;2024-03-06T02:19:42;99548.06;;;13.42;100.00
37848;BME280;23688;33.130;-117.188;2024-03-06T02:22:10;99551.59;;;13.44;100.00
37848;BME280;23688;33.130;-117.188;2024-03-06T02:24:37;99558.63;;;13.47;100.00
37848;BME280;23688;33.130;-117.188;2024-03-06T02:27:04;99549.00;;;13.44;100.00
37848;BME280;23688;33.130;-117.188;2024-03-06T02:29:32;99539.44;;;13.45;100.00
37848;BME280;23688;33.130;-117.188;2024-03-06T02:32:01;99535.97;;;13.46;100.00
37848;BME280;23688;33.130;-117.188;2024-03-06T02:34:30;99547.56;;;13.56;100.00
37848;BME280;23688;33.130;-117.188;2024-03-06T02:36:56;99529.88;;;13.45;100.00
37848;BME280;23688;33.130;-117.188;2024-03-06T02:39:23;99548.06;;;13.42;100.00
37848;BME280;23688;33.130;-117.188;2024-03-06T02:41:50;99541.47;;;13.26;100.00
37848;BME280;23688;33.130;-117.188;2024-03-06T02:44:16;99550.03;;;13.24;100.00
37848;BME280;23688;33.130;-117.188;2024-03-06T02:46:47;99549.00;;;13.17;100.00
37848;BME280;23688;33.130;-117.188;2024-03-06T02:49:17;99533.91;;;13.07;100.00
37848;BME280;23688;33.130;-117.188;2024-03-06T02:51:44;99551.09;;;13.02;100.00
37848;BME280;23688;33.130;-117.188;2024-03-06T02:54:11;99561.31;;;12.96;100.00
37848;BME280;23688;33.130;-117.188;2024-03-06T02:56:40;99553.19;;;12.87;100.00
37848;BME280;23688;33.130;-117.188;2024-03-06T02:59:06;99543.38;;;12.78;100.00
37848;BME280;23688;33.130;-117.188;2024-03-06T03:01:33;99562.50;;;12.78;100.00
37848;BME280;23688;33.130;-117.188;2024-03-06T03:03:59;99565.00;;;12.75;100.00
37848;BME280;23688;33.130;-117.188;2024-03-06T03:06:26;99557.69;;;12.65;100.00
37848;BME280;23688;33.130;-117.188;2024-03-06T03:08:52;99556.03;;;12.67;100.00
37848;BME280;23688;33.130;-117.188;2024-03-06T03:11:18;99563.75;;;12.64;100.00
37848;BME280;23688;33.130;-117.188;2024-03-06T03:13:45;99566.25;;;12.61;100.00
37848;BME280;23688;33.130;-117.188;2024-03-06T03:16:18;99562.59;;;12.56;100.00
37848;BME280;23688;33.130;-117.188;2024-03-06T03:18:46;99557.41;;;12.56;100.00
37848;BME280;23688;33.130;-117.188;2024-03-06T03:21:14;99565.97;;;12.53;100.00
37848;BME280;23688;33.130;-117.188;2024-03-06T03:23:42;99566.03;;;12.55;100.00
37848;BME280;23688;33.130;-117.188;2024-03-06T03:26:10;99559.06;;;12.54;100.00
37848;BME280;23688;33.130;-117.188;2024-03-06T03:28:40;99556.47;;;12.54;100.00
37848;BME280;23688;33.130;-117.188;2024-03-06T03:31:07;99548.66;;;12.54;100.00
37848;BME280;23688;33.130;-117.188;2024-03-06T03:33:41;99551.25;;;12.54;100.00
37848;BME280;23688;33.130;-117.188;2024-03-06T03:36:08;99550.13;;;12.47;100.00
37848;BME280;23688;33.130;-117.188;2024-03-06T03:38:39;99567.69;;;12.53;100.00
37848;BME280;23688;33.130;-117.188;2024-03-06T03:41:12;99560.72;;;12.52;100.00
37848;BME280;23688;33.130;-117.188;2024-03-06T03:43:40;99564.28;;;12.54;100.00
37848;BME280;23688;33.130;-117.188;2024-03-06T03:46:06;99573.75;;;12.52;100.00
37848;BME280;23688;33.130;-117.188;2024-03-06T03:48:33;99562.28;;;12.47;100.00
37848;BME280;23688;33.130;-117.188;2024-03-06T03:51:05;99578.00;;;12.50;100.00
37848;BME280;23688;33.130;-117.188;2024-03-06T03:53:33;99580.38;;;12.43;100.00
37848;BME280;23688;33.130;-117.188;2024-03-06T03:56:00;99568.72;;;12.32;100.00
37848;BME280;23688;33.130;-117.188;2024-03-06T03:58:26;99581.06;;;12.38;100.00
37848;BME280;23688;33.130;-117.188;2024-03-06T04:00:52;99572.28;;;12.34;100.00
37848;BME280;23688;33.130;-117.188;2024-03-06T04:03:21;99561.72;;;12.31;100.00
37848;BME280;23688;33.130;-117.188;2024-03-06T04:05:48;99564.75;;;12.18;100.00
37848;BME280;23688;33.130;-117.188;2024-03-06T04:08:15;99568.22;;;12.18;100.00
37848;BME280;23688;33.130;-117.188;2024-03-06T04:10:44;99577.66;;;12.15;100.00
37848;BME280;23688;33.130;-117.188;2024-03-06T04:13:11;99563.44;;;12.07;100.00
37848;BME280;23688;33.130;-117.188;2024-03-06T04:15:38;99584.63;;;12.16;100.00
37848;BME280;23688;33.130;-117.188;2024-03-06T04:18:05;99577.69;;;12.16;100.00
37848;BME280;23688;33.130;-117.188;2024-03-06T04:20:31;99574.19;;;12.16;100.00
37848;BME280;23688;33.130;-117.188;2024-03-06T04:22:57;99570.66;;;12.14;100.00
37848;BME280;23688;33.130;-117.188;2024-03-06T04:25:24;99581.75;;;12.08;100.00
37848;BME280;23688;33.130;-117.188;2024-03-06T04:27:50;99575.59;;;12.06;100.00
37848;BME280;23688;33.130;-117.188;2024-03-06T04:30:17;99586.94;;;12.08;100.00
37848;BME280;23688;33.130;-117.188;2024-03-06T04:32:43;99583.50;;;12.09;100.00
37848;BME280;23688;33.130;-117.188;2024-03-06T04:35:12;99573.69;;;12.02;100.00
37848;BME280;23688;33.130;-117.188;2024-03-06T04:37:38;99584.78;;;11.96;100.00
37848;BME280;23688;33.130;-117.188;2024-03-06T04:40:08;99577.06;;;11.77;100.00
37848;BME280;23688;33.130;-117.188;2024-03-06T04:42:36;99588.59;;;11.84;100.00
37848;BME280;23688;33.130;-117.188;2024-03-06T04:45:04;99570.81;;;11.72;100.00
37848;BME280;23688;33.130;-117.188;2024-03-06T04:47:34;99597.06;;;11.78;100.00
37848;BME280;23688;33.130;-117.188;2024-03-06T04:50:01;99596.81;;;11.72;100.00
37848;BME280;23688;33.130;-117.188;2024-03-06T04:52:27;99585.88;;;11.58;100.00
37848;BME280;23688;33.130;-117.188;2024-03-06T04:54:53;99589.69;;;11.66;100.00
37848;BME280;23688;33.130;-117.188;2024-03-06T04:57:19;99586.19;;;11.66;100.00
37848;BME280;23688;33.130;-117.188;2024-03-06T04:59:46;99595.00;;;11.69;100.00
37848;BME280;23688;33.130;-117.188;2024-03-06T05:02:12;99585.94;;;11.60;100.00
37848;BME280;23688;33.130;-117.188;2024-03-06T05:04:38;99602.63;;;11.65;100.00
37848;BME280;23688;33.130;-117.188;2024-03-06T05:07:05;99594.88;;;11.66;100.00
37848;BME280;23688;33.130;-117.188;2024-03-06T05:09:31;99593.16;;;11.67;100.00
37848;BME280;23688;33.130;-117.188;2024-03-06T05:11:58;99592.91;;;11.61;100.00
37848;BME280;23688;33.130;-117.188;2024-03-06T05:14:24;99595.84;;;11.68;100.00
37848;BME280;23688;33.130;-117.188;2024-03-06T05:16:50;99592.47;;;11.71;100.00
37848;BME280;23688;33.130;-117.188;2024-03-06T05:19:16;99588.03;;;11.68;100.00
37848;BME280;23688;33.130;-117.188;2024-03-06T05:21:43;99595.06;;;11.71;100.00
37848;BME280;23688;33.130;-117.188;2024-03-06T05:24:09;99588.13;;;11.71;100.00
37848;BME280;23688;33.130;-117.188;2024-03-06T05:26:35;99603.81;;;11.73;100.00
37848;BME280;23688;33.130;-117.188;2024-03-06T05:29:05;99608.25;;;11.75;100.00
37848;BME280;23688;33.130;-117.188;2024-03-06T05:31:31;99599.59;;;11.76;100.00
37848;BME280;23688;33.130;-117.188;2024-03-06T05:33:58;99595.25;;;11.75;100.00
37848;BME280;23688;33.130;-117.188;2024-03-06T05:36:26;99616.44;;;11.86;100.00
37848;BME280;23688;33.130;-117.188;2024-03-06T05:38:53;99619.25;;;11.91;100.00
37848;BME280;23688;33.130;-117.188;2024-03-06T05:41:19;99627.25;;;11.95;100.00
37848;BME280;23688;33.130;-117.188;2024-03-06T05:43:48;99618.66;;;11.98;100.00
37848;BME280;23688;33.130;-117.188;2024-03-06T05:46:14;99611.63;;;11.95;100.00
37848;BME280;23688;33.130;-117.188;2024-03-06T05:48:42;99626.66;;;12.03;100.00
37848;BME280;23688;33.130;-117.188;2024-03-06T05:51:08;99627.47;;;12.02;100.00
37848;BME280;23688;33.130;-117.188;2024-03-06T05:53:38;99624.91;;;12.03;100.00
37848;BME280;23688;33.130;-117.188;2024-03-06T05:56:06;99624.06;;;12.04;100.00
37848;BME280;23688;33.130;-117.188;2024-03-06T05:58:33;99611.03;;;12.03;100.00
37848;BME280;23688;33.130;-117.188;2024-03-06T06:01:02;99609.38;;;12.05;100.00
37848;BME280;23688;33.130;-117.188;2024-03-06T06:03:31;99615.31;;;12.02;100.00
37848;BME280;23688;33.130;-117.188;2024-03-06T06:05:58;99610.13;;;12.02;100.00
37848;BME280;23688;33.130;-117.188;2024-03-06T06:08:24;99605.69;;;11.99;100.00
37848;BME280;23688;33.130;-117.188;2024-03-06T06:10:51;99607.41;;;11.99;100.00
37848;BME280;23688;33.130;-117.188;2024-03-06T06:13:18;99594.97;;;11.90;100.00
37848;BME280;23688;33.130;-117.188;2024-03-06T06:15:48;99595.84;;;11.91;100.00
37848;BME280;23688;33.130;-117.188;2024-03-06T06:18:14;99598.47;;;11.92;100.00
37848;BME280;23688;33.130;-117.188;2024-03-06T06:20:41;99603.69;;;11.92;100.00
37848;BME280;23688;33.130;-117.188;2024-03-06T06:23:08;99603.69;;;11.92;100.00
37848;BME280;23688;33.130;-117.188;2024-03-06T06:25:35;99602.09;;;11.96;100.00
37848;BME280;23688;33.130;-117.188;2024-03-06T06:28:01;99581.94;;;11.90;100.00
37848;BME280;23688;33.130;-117.188;2024-03-06T06:30:27;99600.63;;;12.03;100.00
37848;BME280;23688;33.130;-117.188;2024-03-06T06:32:54;99590.31;;;12.06;100.00
37848;BME280;23688;33.130;-117.188;2024-03-06T06:35:20;99588.66;;;12.08;100.00
37848;BME280;23688;33.130;-117.188;2024-03-06T06:37:48;99586.88;;;12.07;100.00
37848;BME280;23688;33.130;-117.188;2024-03-06T06:40:14;99587.66;;;12.04;100.00
37848;BME280;23688;33.130;-117.188;2024-03-06T06:42:48;99601.00;;;12.13;100.00
37848;BME280;23688;33.130;-117.188;2024-03-06T06:45:19;99594.03;;;12.12;100.00
37848;BME280;23688;33.130;-117.188;2024-03-06T06:47:46;99595.81;;;12.13;100.00
37848;BME280;23688;33.130;-117.188;2024-03-06T06:50:12;99598.50;;;12.16;100.00
37848;BME280;23688;33.130;-117.188;2024-03-06T06:52:39;99603.78;;;12.18;100.00
37848;BME280;23688;33.130;-117.188;2024-03-06T06:55:06;99595.13;;;12.19;100.00
37848;BME280;23688;33.130;-117.188;2024-03-06T06:57:35;99596.91;;;12.20;100.00
37848;BME280;23688;33.130;-117.188;2024-03-06T07:00:03;99597.88;;;12.22;100.00
37848;BME280;23688;33.130;-117.188;2024-03-06T07:02:42;99609.16;;;12.23;100.00
37848;BME280;23688;33.130;-117.188;2024-03-06T07:05:10;99601.41;;;12.24;100.00
37848;BME280;23688;33.130;-117.188;2024-03-06T07:07:38;99602.50;;;12.31;100.00
37848;BME280;23688;33.130;-117.188;2024-03-06T07:10:07;99599.91;;;12.31;100.00
37848;BME280;23688;33.130;-117.188;2024-03-06T07:12:35;99604.16;;;12.29;100.00
37848;BME280;23688;33.130;-117.188;2024-03-06T07:15:01;99600.84;;;12.33;100.00
37848;BME280;23688;33.130;-117.188;2024-03-06T07:17:28;99596.47;;;12.32;100.00
37848;BME280;23688;33.130;-117.188;2024-03-06T07:19:55;99593.75;;;12.29;100.00
37848;BME280;23688;33.130;-117.188;2024-03-06T07:22:21;99571.75;;;12.20;100.00
37848;BME280;23688;33.130;-117.188;2024-03-06T07:24:48;99577.84;;;12.21;100.00
37848;BME280;23688;33.130;-117.188;2024-03-06T07:27:15;99591.88;;;12.25;100.00
37848;BME280;23688;33.130;-117.188;2024-03-06T07:29:41;99589.09;;;12.20;100.00
37848;BME280;23688;33.130;-117.188;2024-03-06T07:32:07;99592.88;;;12.28;100.00
37848;BME280;23688;33.130;-117.188;2024-03-06T07:34:34;99591.00;;;12.24;100.00
37848;BME280;23688;33.130;-117.188;2024-03-06T07:37:00;99593.09;;;12.34;100.00
37848;BME280;23688;33.130;-117.188;2024-03-06T07:39:27;99590.59;;;12.37;100.00
37848;BME280;23688;33.130;-117.188;2024-03-06T07:41:54;99574.81;;;12.33;100.00
37848;BME280;23688;33.130;-117.188;2024-03-06T07:44:20;99570.63;;;12.36;100.00
37848;BME280;23688;33.130;-117.188;2024-03-06T07:46:47;99581.28;;;12.44;100.00
37848;BME280;23688;33.130;-117.188;2024-03-06T07:49:14;99584.78;;;12.45;100.00
37848;BME280;23688;33.130;-117.188;2024-03-06T07:51:40;99584.78;;;12.45;100.00
37848;BME280;23688;33.130;-117.188;2024-03-06T07:54:07;99576.91;;;12.43;100.00
37848;BME280;23688;33.130;-117.188;2024-03-06T07:56:33;99570.72;;;12.39;100.00
37848;BME280;23688;33.130;-117.188;2024-03-06T07:59:00;99579.66;;;12.48;100.00
37848;BME280;23688;33.130;-117.188;2024-03-06T08:01:27;99576.25;;;12.49;100.00
37848;BME280;23688;33.130;-117.188;2024-03-06T08:03:57;99568.38;;;12.47;100.00
37848;BME280;23688;33.130;-117.188;2024-03-06T08:06:24;99574.53;;;12.49;100.00
37848;BME280;23688;33.130;-117.188;2024-03-06T08:08:52;99574.47;;;12.48;100.00
37848;BME280;23688;33.130;-117.188;2024-03-06T08:11:18;99570.97;;;12.47;100.00
37848;BME280;23688;33.130;-117.188;2024-03-06T08:13:49;99569.25;;;12.48;100.00
37848;BME280;23688;33.130;-117.188;2024-03-06T08:16:16;99566.63;;;12.46;100.00
37848;BME280;23688;33.130;-117.188;2024-03-06T08:18:43;99560.63;;;12.49;100.00
37848;BME280;23688;33.130;-117.188;2024-03-06T08:21:09;99548.31;;;12.45;100.00
37848;BME280;23688;33.130;-117.188;2024-03-06T08:23:38;99554.56;;;12.50;100.00
37848;BME280;23688;33.130;-117.188;2024-03-06T08:26:05;99552.75;;;12.47;100.00
37848;BME280;23688;33.130;-117.188;2024-03-06T08:28:31;99546.66;;;12.47;100.00
37848;BME280;23688;33.130;-117.188;2024-03-06T08:30:59;99545.81;;;12.48;100.00
37848;BME280;23688;33.130;-117.188;2024-03-06T08:33:25;99542.34;;;12.47;100.00
37848;BME280;23688;33.130;-117.188;2024-03-06T08:35:52;99537.81;;;12.41;100.00
37848;BME280;23688;33.130;-117.188;2024-03-06T08:38:18;99543.22;;;12.48;100.00
37848;BME280;23688;33.130;-117.188;2024-03-06T08:40:44;99534.97;;;12.35;100.00
37848;BME280;23688;33.130;-117.188;2024-03-06T08:43:14;99534.03;;;12.33;100.00
37848;BME280;23688;33.130;-117.188;2024-03-06T08:45:41;99546.25;;;12.34;100.00
37848;BME280;23688;33.130;-117.188;2024-03-06T08:48:08;99541.91;;;12.35;100.00
37848;BME280;23688;33.130;-117.188;2024-03-06T08:50:35;99548.78;;;12.33;100.00
37848;BME280;23688;33.130;-117.188;2024-03-06T08:53:01;99548.84;;;12.34;100.00
37848;BME280;23688;33.130;-117.188;2024-03-06T08:55:28;99554.84;;;12.33;100.00
37848;BME280;23688;33.130;-117.188;2024-03-06T08:57:54;99552.22;;;12.32;100.00
37848;BME280;23688;33.130;-117.188;2024-03-06T09:00:22;99549.56;;;12.30;100.00
37848;BME280;23688;33.130;-117.188;2024-03-06T09:02:48;99554.59;;;12.26;100.00
37848;BME280;23688;33.130;-117.188;2024-03-06T09:05:15;99568.38;;;12.23;100.00
37848;BME280;23688;33.130;-117.188;2024-03-06T09:07:42;99563.09;;;12.20;100.00
37848;BME280;23688;33.130;-117.188;2024-03-06T09:10:11;99546.41;;;12.15;100.00
37848;BME280;23688;33.130;-117.188;2024-03-06T09:12:38;99541.16;;;12.13;100.00
37848;BME280;23688;33.130;-117.188;2024-03-06T09:15:05;99535.84;;;12.10;100.00
37848;BME280;23688;33.130;-117.188;2024-03-06T09:17:35;99550.56;;;12.10;100.00
37848;BME280;23688;33.130;-117.188;2024-03-06T09:20:02;99514.59;;;11.98;100.00
37848;BME280;23688;33.130;-117.188;2024-03-06T09:22:40;99523.38;;;12.02;100.00
37848;BME280;23688;33.130;-117.188;2024-03-06T09:25:08;99538.38;;;12.09;100.00
37848;BME280;23688;33.130;-117.188;2024-03-06T09:27:34;99539.88;;;12.02;100.00
37848;BME280;23688;33.130;-117.188;2024-03-06T09:30:01;99537.22;;;12.01;100.00
37848;BME280;23688;33.130;-117.188;2024-03-06T09:32:28;99536.28;;;11.98;100.00
37848;BME280;23688;33.130;-117.188;2024-03-06T09:34:55;99517.81;;;11.92;100.00
37848;BME280;23688;33.130;-117.188;2024-03-06T09:37:22;99529.19;;;11.94;100.00
37848;BME280;23688;33.130;-117.188;2024-03-06T09:39:48;99515.97;;;11.88;100.00
37848;BME280;23688;33.130;-117.188;2024-03-06T09:42:16;99531.69;;;11.91;100.00
37848;BME280;23688;33.130;-117.188;2024-03-06T09:44:43;99524.72;;;11.90;100.00
37848;BME280;23688;33.130;-117.188;2024-03-06T09:47:13;99522.44;;;11.99;100.00
37848;BME280;23688;33.130;-117.188;2024-03-06T09:49:42;99512.78;;;11.97;100.00
37848;BME280;23688;33.130;-117.188;2024-03-06T09:52:10;99486.31;;;11.85;100.00
37848;BME280;23688;33.130;-117.188;2024-03-06T09:54:37;99506.81;;;11.99;100.00
37848;BME280;23688;33.130;-117.188;2024-03-06T09:57:05;99525.25;;;12.06;100.00
37848;BME280;23688;33.130;-117.188;2024-03-06T09:59:31;99522.66;;;12.06;100.00
37848;BME280;23688;33.130;-117.188;2024-03-06T10:01:58;99506.00;;;12.01;100.00
37848;BME280;23688;33.130;-117.188;2024-03-06T10:04:28;99520.91;;;12.05;100.00
37848;BME280;23688;33.130;-117.188;2024-03-06T10:06:59;99511.13;;;11.99;100.00
37848;BME280;23688;33.130;-117.188;2024-03-06T10:09:27;99483.13;;;11.92;100.00
37848;BME280;23688;33.130;-117.188;2024-03-06T10:11:53;99480.66;;;11.95;100.00
37848;BME280;23688;33.130;-117.188;2024-03-06T10:14:22;99484.16;;;11.97;100.00
37848;BME280;23688;33.130;-117.188;2024-03-06T10:17:07;99487.69;;;11.97;100.00
37848;BME280;23688;33.130;-117.188;2024-03-06T10:19:33;99481.56;;;11.97;100.00
37848;BME280;23688;33.130;-117.188;2024-03-06T10:21:59;99475.31;;;11.92;100.00
37848;BME280;23688;33.130;-117.188;2024-03-06T10:24:27;99478.94;;;11.95;100.00
37848;BME280;23688;33.130;-117.188;2024-03-06T10:26:58;99481.72;;;12.00;100.00
37848;BME280;23688;33.130;-117.188;2024-03-06T10:29:27;99487.78;;;12.01;100.00
37848;BME280;23688;33.130;-117.188;2024-03-06T10:31:55;99485.19;;;12.01;100.00
37848;BME280;23688;33.130;-117.188;2024-03-06T10:34:26;99470.97;;;11.91;100.00
37848;BME280;23688;33.130;-117.188;2024-03-06T10:37:01;99472.88;;;11.96;100.00
37848;BME280;23688;33.130;-117.188;2024-03-06T10:39:31;99472.72;;;11.92;100.00
37848;BME280;23688;33.130;-117.188;2024-03-06T10:42:02;99473.66;;;11.94;100.00
37848;BME280;23688;33.130;-117.188;2024-03-06T10:44:32;99464.88;;;11.90;100.00
37848;BME280;23688;33.130;-117.188;2024-03-06T10:47:01;99453.56;;;11.90;100.00
37848;BME280;23688;33.130;-117.188;2024-03-06T10:49:30;99444.84;;;11.88;100.00
37848;BME280;23688;33.130;-117.188;2024-03-06T10:52:04;99440.25;;;11.82;100.00
37848;BME280;23688;33.130;-117.188;2024-03-06T10:54:35;99454.81;;;11.77;100.00
37848;BME280;23688;33.130;-117.188;2024-03-06T10:57:04;99445.03;;;11.70;100.00
37848;BME280;23688;33.130;-117.188;2024-03-06T10:59:32;99430.88;;;11.62;100.00
37848;BME280;23688;33.130;-117.188;2024-03-06T11:02:00;99442.41;;;11.68;100.00
37848;BME280;23688;33.130;-117.188;2024-03-06T11:04:29;99431.81;;;11.64;100.00
37848;BME280;23688;33.130;-117.188;2024-03-06T11:06:57;99430.72;;;11.57;100.00
37848;BME280;23688;33.130;-117.188;2024-03-06T11:09:35;99433.41;;;11.60;100.00
37848;BME280;23688;33.130;-117.188;2024-03-06T11:12:02;99435.97;;;11.59;100.00
37848;BME280;23688;33.130;-117.188;2024-03-06T11:14:31;99447.53;;;11.67;100.00
37848;BME280;23688;33.130;-117.188;2024-03-06T11:17:08;99444.94;;;11.67;100.00
37848;BME280;23688;33.130;-117.188;2024-03-06T11:28:19;99416.81;;;11.56;100.00
37848;BME280;23688;33.130;-117.188;2024-03-06T11:31:10;99421.25;;;11.59;100.00
37848;BME280;23688;33.130;-117.188;2024-03-06T11:33:53;99423.78;;;11.57;100.00
37848;BME280;23688;33.130;-117.188;2024-03-06T11:36:25;99421.25;;;11.59;100.00
37848;BME280;23688;33.130;-117.188;2024-03-06T11:38:57;99426.28;;;11.54;100.00
37848;BME280;23688;33.130;-117.188;2024-03-06T11:41:53;99423.44;;;11.48;100.00
37848;BME280;23688;33.130;-117.188;2024-03-06T11:44:23;99406.50;;;11.34;100.00
37848;BME280;23688;33.130;-117.188;2024-03-06T11:47:10;99419.00;;;11.44;100.00
37848;BME280;23688;33.130;-117.188;2024-03-06T11:49:36;99412.59;;;11.36;100.00
37848;BME280;23688;33.130;-117.188;2024-03-06T11:52:04;99418.38;;;11.27;100.00
37848;BME280;23688;33.130;-117.188;2024-03-06T11:54:33;99427.75;;;11.24;100.00
37848;BME280;23688;33.130;-117.188;2024-03-06T11:57:04;99407.16;;;11.06;100.00
37848;BME280;23688;33.130;-117.188;2024-03-06T11:59:37;99411.19;;;10.98;100.00
37848;BME280;23688;33.130;-117.188;2024-03-06T12:02:09;99413.72;;;10.96;100.00
37848;BME280;23688;33.130;-117.188;2024-03-06T12:04:36;99415.63;;;11.00;100.00
37848;BME280;23688;33.130;-117.188;2024-03-06T12:07:03;99414.00;;;11.04;100.00
37848;BME280;23688;33.130;-117.188;2024-03-06T12:09:35;99412.25;;;11.03;100.00
37848;BME280;23688;33.130;-117.188;2024-03-06T12:12:02;99411.38;;;11.02;100.00
37848;BME280;23688;33.130;-117.188;2024-03-06T12:14:29;99409.69;;;11.04;100.00
37848;BME280;23688;33.130;-117.188;2024-03-06T12:16:57;99407.94;;;11.03;100.00
37848;BME280;23688;33.130;-117.188;2024-03-06T12:19:36;99404.50;;;11.04;100.00
37848;BME280;23688;33.130;-117.188;2024-03-06T12:22:05;99406.97;;;11.01;100.00
37848;BME280;23688;33.130;-117.188;2024-03-06T12:24:32;99408.34;;;10.91;100.00
37848;BME280;23688;33.130;-117.188;2024-03-06T12:27:03;99408.75;;;10.80;100.00
37848;BME280;23688;33.130;-117.188;2024-03-06T12:29:31;99404.28;;;10.76;100.00
37848;BME280;23688;33.130;-117.188;2024-03-06T12:32:00;99413.00;;;10.78;100.00
37848;BME280;23688;33.130;-117.188;2024-03-06T12:34:28;99411.16;;;10.75;100.00